Time;durP1;ratioP1;P1;durP2;ratioP2;P2;SDS_P1;SDS_P2;PMS_P1;PMS_P2;Temp;Humidity;BMP_temperature;BMP_pressure;BME280_temperature;BME280_humidity;BME280_pressure;Samples;Min_cycle;Max_cycle;Signal;HPM_P1;HPM_P2
2021/03/21 00:01:09;;;;;;;28.58;18.08;;;5.00;99.90;;;;;;5067232;28;20615;-47
2021/03/21 00:03:35;;;;;;;31.73;18.25;;;5.00;99.90;;;;;;5065523;28;20107;-45
2021/03/21 00:06:00;;;;;;;24.70;16.33;;;5.00;99.90;;;;;;5066399;28;20020;-45
2021/03/21 00:08:28;;;;;;;21.98;14.88;;;5.10;99.90;;;;;;5067610;28;20027;-45
2021/03/21 00:10:58;;;;;;;23.15;13.77;;;5.10;99.90;;;;;;5066810;28;20058;-45
2021/03/21 00:13:25;;;;;;;19.42;13.77;;;5.10;99.90;;;;;;5070690;28;20033;-44
2021/03/21 00:15:53;;;;;;;20.30;12.90;;;5.10;99.90;;;;;;5068583;28;20025;-45
2021/03/21 00:18:21;;;;;;;20.08;12.30;;;5.10;99.90;;;;;;5070138;28;20024;-46
2021/03/21 00:20:47;;;;;;;17.83;11.25;;;5.10;99.90;;;;;;5068911;28;20246;-45
2021/03/21 00:23:12;;;;;;;17.83;10.60;;;5.20;99.90;;;;;;5070550;28;20115;-47
2021/03/21 00:25:39;;;;;;;15.05;11.15;;;5.10;99.90;;;;;;5070126;28;20622;-46
2021/03/21 00:28:10;;;;;;;16.88;10.35;;;5.20;99.90;;;;;;5070325;28;20040;-45
2021/03/21 00:30:39;;;;;;;13.68;9.32;;;5.10;99.90;;;;;;5070653;28;20115;-45
2021/03/21 00:33:06;;;;;;;12.35;8.43;;;5.20;99.90;;;;;;5070752;28;20028;-44
2021/03/21 00:35:32;;;;;;;12.25;9.40;;;5.20;99.90;;;;;;5069857;28;20421;-45
2021/03/21 00:38:02;;;;;;;9.45;7.60;;;5.20;99.90;;;;;;5069849;28;20025;-46
2021/03/21 00:40:29;;;;;;;8.32;6.20;;;5.20;99.90;;;;;;5070153;28;20024;-44
2021/03/21 00:42:55;;;;;;;9.75;6.78;;;5.20;99.90;;;;;;5068740;28;20570;-45
2021/03/21 00:45:23;;;;;;;8.98;6.07;;;5.20;99.90;;;;;;5069794;28;20028;-45
2021/03/21 00:47:50;;;;;;;10.05;6.60;;;5.20;99.90;;;;;;5052050;28;20485;-46
2021/03/21 00:50:23;;;;;;;10.82;6.28;;;5.20;99.90;;;;;;5060080;28;20036;-47
2021/03/21 00:52:49;;;;;;;10.65;6.40;;;5.30;99.90;;;;;;5049976;28;20489;-46
2021/03/21 00:55:15;;;;;;;7.45;5.43;;;5.30;99.90;;;;;;5049730;28;20115;-44
2021/03/21 00:57:41;;;;;;;7.00;5.38;;;5.30;99.90;;;;;;5050072;28;20470;-46
2021/03/21 01:00:15;;;;;;;6.45;4.82;;;5.30;99.90;;;;;;5048242;28;20522;-45
2021/03/21 01:02:41;;;;;;;7.13;4.53;;;5.30;99.90;;;;;;5048801;28;20108;-45
2021/03/21 01:05:15;;;;;;;8.68;4.32;;;5.30;99.90;;;;;;5048894;28;20095;-44
2021/03/21 01:07:41;;;;;;;6.55;4.60;;;5.30;99.90;;;;;;5049944;28;20048;-48
2021/03/21 01:10:07;;;;;;;8.55;3.85;;;5.30;99.90;;;;;;5049638;28;20116;-48
2021/03/21 01:12:33;;;;;;;4.32;3.42;;;5.30;99.90;;;;;;5048693;28;20060;-45
2021/03/21 01:14:59;;;;;;;5.28;3.67;;;5.30;99.90;;;;;;5048725;28;20363;-47
2021/03/21 01:17:24;;;;;;;3.97;2.90;;;5.30;99.90;;;;;;5049853;28;20029;-46
2021/03/21 01:19:50;;;;;;;5.07;3.45;;;5.30;99.90;;;;;;5048834;28;20029;-47
2021/03/21 01:22:15;;;;;;;4.30;3.08;;;5.40;99.90;;;;;;5048153;28;20394;-48
2021/03/21 01:24:41;;;;;;;4.68;3.60;;;5.30;99.90;;;;;;5049444;28;20167;-45
2021/03/21 01:27:07;;;;;;;5.43;3.70;;;5.30;99.90;;;;;;5048533;28;20494;-48
2021/03/21 01:29:32;;;;;;;5.53;3.80;;;5.40;99.90;;;;;;5049494;28;20108;-44
2021/03/21 01:31:58;;;;;;;5.93;3.58;;;5.40;99.90;;;;;;5048110;28;20609;-45
2021/03/21 01:34:23;;;;;;;5.55;4.28;;;5.40;99.90;;;;;;5047706;28;20021;-45
2021/03/21 01:36:49;;;;;;;5.95;4.47;;;5.30;99.90;;;;;;5048414;28;20111;-46
2021/03/21 01:39:24;;;;;;;5.53;4.38;;;5.30;99.90;;;;;;5047725;28;20486;-45
2021/03/21 01:41:57;;;;;;;6.70;5.20;;;5.30;99.90;;;;;;5048714;28;20036;-45
2021/03/21 01:44:23;;;;;;;6.80;4.90;;;5.30;99.90;;;;;;5049202;28;20433;-44
2021/03/21 01:46:51;;;;;;;6.85;4.95;;;5.20;99.90;;;;;;5046576;28;20029;-47
2021/03/21 01:49:21;;;;;;;7.13;5.35;;;5.20;99.90;;;;;;5048771;28;20056;-48
2021/03/21 01:51:50;;;;;;;7.72;5.32;;;5.10;99.90;;;;;;5056945;28;20040;-44
2021/03/21 01:54:17;;;;;;;12.05;6.28;;;5.10;99.90;;;;;;5069174;28;20043;-45
2021/03/21 01:56:44;;;;;;;7.50;5.55;;;5.10;99.90;;;;;;5057096;28;20025;-45
2021/03/21 01:59:10;;;;;;;10.18;5.95;;;5.10;99.90;;;;;;5048819;28;20035;-46
2021/03/21 02:01:36;;;;;;;9.25;5.20;;;5.00;99.90;;;;;;5048626;28;20025;-46
2021/03/21 02:04:02;;;;;;;6.68;5.32;;;5.10;99.90;;;;;;5048401;28;20024;-45
2021/03/21 02:06:36;;;;;;;7.90;5.78;;;5.00;99.90;;;;;;5048553;28;20021;-49
2021/03/21 02:09:04;;;;;;;8.43;5.18;;;5.10;99.90;;;;;;5047099;28;20020;-46
2021/03/21 02:12:01;;;;;;;9.90;5.38;;;5.10;99.90;;;;;;5048802;28;20036;-46
2021/03/21 02:14:40;;;;;;;8.57;5.88;;;5.10;99.90;;;;;;5048865;28;20025;-45
2021/03/21 02:17:18;;;;;;;7.45;5.00;;;5.10;99.90;;;;;;5046389;28;20470;-45
2021/03/21 02:20:02;;;;;;;8.85;5.90;;;5.10;99.90;;;;;;5047953;28;20398;-46
2021/03/21 02:22:32;;;;;;;8.20;4.90;;;5.20;99.90;;;;;;5048407;28;20025;-47
2021/03/21 02:25:21;;;;;;;9.02;4.85;;;5.10;99.90;;;;;;5047866;28;20033;-46
2021/03/21 02:28:11;;;;;;;7.40;5.38;;;5.10;99.90;;;;;;5048622;28;20065;-46
2021/03/21 02:30:45;;;;;;;7.13;5.05;;;5.10;99.90;;;;;;5048169;28;20116;-47
2021/03/21 02:33:36;;;;;;;8.55;5.35;;;5.00;99.90;;;;;;5046858;28;20406;-47
2021/03/21 02:36:11;;;;;;;9.73;4.75;;;5.10;99.90;;;;;;5045666;28;20017;-46
2021/03/21 02:38:53;;;;;;;6.10;4.90;;;5.00;99.90;;;;;;5048209;28;20021;-45
2021/03/21 02:41:31;;;;;;;7.80;4.28;;;5.00;99.90;;;;;;5047963;28;20422;-47
2021/03/21 02:44:03;;;;;;;5.60;4.28;;;5.10;99.90;;;;;;5047717;28;20025;-45
2021/03/21 02:46:35;;;;;;;7.88;4.60;;;5.10;99.90;;;;;;5047396;28;20021;-45
2021/03/21 02:49:23;;;;;;;6.93;4.55;;;5.20;99.90;;;;;;5047022;28;20225;-44
2021/03/21 02:51:53;;;;;;;6.93;4.57;;;5.20;99.90;;;;;;5047424;28;20075;-45
2021/03/21 02:54:33;;;;;;;6.05;4.68;;;5.20;99.90;;;;;;5063918;28;20032;-46
2021/03/21 02:57:08;;;;;;;7.07;5.32;;;5.20;99.90;;;;;;5053618;28;20032;-46
2021/03/21 02:59:37;;;;;;;7.25;5.22;;;5.20;99.90;;;;;;5046172;28;20175;-49
2021/03/21 03:02:17;;;;;;;7.15;5.25;;;5.20;99.90;;;;;;5047787;28;20120;-47
2021/03/21 03:04:47;;;;;;;7.68;5.88;;;5.30;99.90;;;;;;5047466;28;20318;-45
2021/03/21 03:07:20;;;;;;;8.20;6.13;;;5.30;99.90;;;;;;5047274;28;20060;-47
2021/03/21 03:09:51;;;;;;;8.38;5.93;;;5.20;99.90;;;;;;5047431;28;20025;-46
2021/03/21 03:12:19;;;;;;;;;;;5.20;99.90;;;;;;5048358;28;20024;-47
2021/03/21 03:14:47;;;;;;;8.85;6.18;;;5.30;99.90;;;;;;5047080;28;19909;-45
2021/03/21 03:17:38;;;;;;;8.90;5.88;;;5.30;99.90;;;;;;5047256;28;20017;-45
2021/03/21 03:20:04;;;;;;;9.73;6.95;;;5.20;99.90;;;;;;5047108;28;20032;-46
2021/03/21 03:22:44;;;;;;;8.15;6.85;;;5.20;99.90;;;;;;5047959;28;20033;-45
2021/03/21 03:25:29;;;;;;;7.80;6.50;;;5.20;99.90;;;;;;5046923;28;20413;-44
2021/03/21 03:28:03;;;;;;;8.57;6.25;;;5.20;99.90;;;;;;5046645;28;20029;-45
2021/03/21 03:30:51;;;;;;;8.85;6.75;;;5.30;99.90;;;;;;5047491;28;20170;-47
2021/03/21 03:33:19;;;;;;;10.65;7.28;;;5.30;99.90;;;;;;5039773;28;20102;-45
2021/03/21 03:35:45;;;;;;;12.70;7.30;;;5.20;99.90;;;;;;5046686;28;20025;-45
2021/03/21 03:38:12;;;;;;;13.15;8.18;;;5.20;99.90;;;;;;5047560;28;20025;-45
2021/03/21 03:40:40;;;;;;;12.30;8.23;;;5.20;99.90;;;;;;5045970;28;20027;-45
2021/03/21 03:43:30;;;;;;;10.85;7.95;;;5.20;99.90;;;;;;5046929;28;20108;-47
2021/03/21 03:46:17;;;;;;;11.48;7.78;;;5.20;99.90;;;;;;5046326;28;20040;-45
2021/03/21 03:49:11;;;;;;;11.40;8.05;;;5.20;99.90;;;;;;5051454;28;20056;-45
2021/03/21 03:52:01;;;;;;;10.30;7.32;;;5.20;99.90;;;;;;5051505;28;20029;-45
2021/03/21 03:54:32;;;;;;;7.57;5.55;;;5.20;99.90;;;;;;5061214;28;20504;-47
2021/03/21 03:57:06;;;;;;;12.95;7.63;;;5.20;99.90;;;;;;5062156;28;20083;-45
2021/03/21 04:00:02;;;;;;;12.45;7.63;;;5.20;99.90;;;;;;5050911;28;20013;-44
2021/03/21 04:03:05;;;;;;;11.40;7.20;;;5.20;99.90;;;;;;5049900;28;20040;-45
2021/03/21 04:05:39;;;;;;;10.50;7.50;;;5.20;99.90;;;;;;5050766;28;20422;-46
2021/03/21 04:08:14;;;;;;;9.90;6.80;;;5.20;99.90;;;;;;5050562;28;20126;-45
2021/03/21 04:10:49;;;;;;;9.68;6.82;;;5.20;99.90;;;;;;5050906;28;20029;-45
2021/03/21 04:13:27;;;;;;;11.15;7.13;;;5.30;99.90;;;;;;5050421;28;20039;-43
2021/03/21 04:15:55;;;;;;;11.30;7.45;;;5.30;99.90;;;;;;5050140;28;20029;-45
2021/03/21 04:18:27;;;;;;;10.20;6.95;;;5.30;99.90;;;;;;5051046;28;20029;-48
2021/03/21 04:21:08;;;;;;;9.90;6.55;;;5.40;99.90;;;;;;5050565;28;20013;-45
2021/03/21 04:23:43;;;;;;;9.45;6.50;;;5.40;99.90;;;;;;5050964;28;20052;-45
2021/03/21 04:26:13;;;;;;;9.13;6.03;;;5.40;99.90;;;;;;5049748;28;20426;-44
2021/03/21 04:28:50;;;;;;;8.97;6.70;;;5.40;99.90;;;;;;5049436;28;20060;-45
2021/03/21 04:31:17;;;;;;;7.05;5.55;;;5.40;99.90;;;;;;5049108;28;20286;-45
2021/03/21 04:33:57;;;;;;;9.95;6.47;;;5.50;99.90;;;;;;5050266;28;20033;-44
2021/03/21 04:36:30;;;;;;;8.27;6.10;;;5.50;99.90;;;;;;5049757;28;20434;-48
2021/03/21 04:39:05;;;;;;;11.52;6.47;;;5.50;99.90;;;;;;5049979;28;20128;-49
2021/03/21 04:41:37;;;;;;;9.20;6.55;;;5.40;99.90;;;;;;5050560;28;20255;-47
2021/03/21 04:44:26;;;;;;;9.20;6.25;;;5.50;99.90;;;;;;5050187;28;20123;-46
2021/03/21 04:46:57;;;;;;;8.35;6.20;;;5.50;99.90;;;;;;5048190;28;20025;-45
2021/03/21 04:49:23;;;;;;;9.25;6.18;;;5.50;99.90;;;;;;5050025;28;20367;-45
2021/03/21 04:51:54;;;;;;;9.77;6.28;;;5.50;99.90;;;;;;5050092;28;20056;-45
2021/03/21 04:54:29;;;;;;;9.00;6.15;;;5.60;99.90;;;;;;5055526;28;20143;-45
2021/03/21 04:57:11;;;;;;;8.70;5.65;;;5.60;99.90;;;;;;5057516;28;20037;-47
2021/03/21 04:59:39;;;;;;;8.57;6.18;;;5.50;99.90;;;;;;5049909;28;20071;-47
2021/03/21 05:02:15;;;;;;;8.45;6.63;;;5.60;99.90;;;;;;5049780;28;20029;-46
2021/03/21 05:04:54;;;;;;;11.27;6.30;;;5.60;99.90;;;;;;5050146;28;20037;-49
2021/03/21 05:07:54;;;;;;;8.52;5.97;;;5.60;99.90;;;;;;5049608;28;20059;-44
2021/03/21 05:10:34;;;;;;;10.45;6.43;;;5.60;99.90;;;;;;5049769;28;20094;-44
2021/03/21 05:13:07;;;;;;;8.20;6.00;;;5.60;99.90;;;;;;5048061;28;20108;-44
2021/03/21 05:15:47;;;;;;;14.05;6.40;;;5.60;99.90;;;;;;5048617;28;20116;-45
2021/03/21 05:18:40;;;;;;;10.93;7.55;;;5.60;99.90;;;;;;5049887;28;20298;-46
2021/03/21 05:21:16;;;;;;;12.10;6.22;;;5.60;99.90;;;;;;5054707;28;20036;-46
2021/03/21 05:24:03;;;;;;;9.50;6.15;;;5.70;99.90;;;;;;5061245;28;20038;-46
2021/03/21 05:26:51;;;;;;;11.13;6.43;;;5.60;99.90;;;;;;5057890;28;20042;-47
2021/03/21 05:29:45;;;;;;;9.10;6.38;;;5.70;99.90;;;;;;5057240;28;20060;-44
2021/03/21 05:32:15;;;;;;;8.55;5.65;;;5.70;99.90;;;;;;5058892;28;20040;-45
2021/03/21 05:34:42;;;;;;;8.23;5.97;;;5.70;99.90;;;;;;5058689;28;20044;-44
2021/03/21 05:37:25;;;;;;;8.65;5.85;;;5.70;99.90;;;;;;5057192;28;20254;-45
2021/03/21 05:39:58;;;;;;;8.88;6.20;;;5.80;99.90;;;;;;5058825;28;20032;-45
2021/03/21 05:42:43;;;;;;;8.30;5.90;;;5.70;99.90;;;;;;5056579;28;20083;-47
2021/03/21 05:45:45;;;;;;;8.80;6.07;;;5.70;99.90;;;;;;5056153;28;20032;-46
2021/03/21 05:48:44;;;;;;;11.20;6.55;;;5.70;99.90;;;;;;5059604;28;20044;-44
2021/03/21 05:51:15;;;;;;;7.70;5.03;;;5.70;99.90;;;;;;5059390;28;20028;-43
2021/03/21 05:54:16;;;;;;;7.53;4.88;;;5.70;99.90;;;;;;5055644;28;20037;-45
2021/03/21 05:57:01;;;;;;;;;;;5.80;99.90;;;;;;5047459;28;20040;-46
2021/03/21 05:59:55;;;;;;;7.35;4.47;;;5.80;99.90;;;;;;5059467;28;19915;-45
2021/03/21 06:02:46;;;;;;;5.25;3.75;;;5.80;99.90;;;;;;5058978;28;20033;-46
2021/03/21 06:05:33;;;;;;;7.13;3.63;;;5.80;99.90;;;;;;5057852;28;20044;-45
2021/03/21 06:08:22;;;;;;;7.75;3.90;;;5.90;99.90;;;;;;5064170;28;20412;-44
2021/03/21 06:11:24;;;;;;;6.85;3.20;;;5.90;99.90;;;;;;5067741;28;20029;-48
2021/03/21 06:14:23;;;;;;;6.68;2.97;;;5.90;99.90;;;;;;5068799;28;20371;-45
2021/03/21 06:17:13;;;;;;;5.20;2.95;;;6.00;99.90;;;;;;5060756;28;20063;-45
2021/03/21 06:20:10;;;;;;;7.93;2.93;;;6.00;99.90;;;;;;5057856;28;20068;-45
2021/03/21 06:22:44;;;;;;;5.88;2.75;;;6.10;99.90;;;;;;5060930;28;20035;-46
2021/03/21 06:25:30;;;;;;;9.95;3.25;;;6.10;99.90;;;;;;5066598;28;20068;-48
2021/03/21 06:28:22;;;;;;;6.95;3.20;;;6.00;99.90;;;;;;5054628;28;20032;-45
2021/03/21 06:31:29;;;;;;;6.80;3.20;;;6.00;99.90;;;;;;5104456;27;20879;-45
2021/03/21 06:34:28;;;;;;;4.43;3.35;;;6.00;99.90;;;;;;5105130;28;20032;-46
2021/03/21 06:37:48;;;;;;;6.43;2.88;;;6.10;99.90;;;;;;5103511;28;20461;-44
2021/03/21 06:40:51;;;;;;;4.55;2.88;;;6.10;99.90;;;;;;5041368;28;20071;-45
2021/03/21 06:43:20;;;;;;;6.53;2.90;;;6.10;99.90;;;;;;5105257;28;20393;-45
2021/03/21 06:45:59;;;;;;;6.13;2.97;;;6.00;99.90;;;;;;5104088;28;20024;-45
2021/03/21 06:48:50;;;;;;;8.88;3.70;;;6.00;99.90;;;;;;5104057;28;20024;-47
2021/03/21 06:51:32;;;;;;;4.85;3.58;;;6.00;99.90;;;;;;5103941;28;20470;-44
2021/03/21 06:54:09;;;;;;;7.05;3.60;;;6.00;99.90;;;;;;5104905;28;20023;-46
2021/03/21 06:56:47;;;;;;;7.53;3.92;;;6.00;99.90;;;;;;5103080;28;20024;-45
2021/03/21 06:59:39;;;;;;;5.35;3.20;;;5.90;99.90;;;;;;5102164;28;20063;-47
2021/03/21 07:02:34;;;;;;;6.57;3.33;;;5.90;99.90;;;;;;5104892;28;20031;-46
2021/03/21 07:05:37;;;;;;;6.97;3.00;;;5.90;99.90;;;;;;5105018;28;20384;-46
2021/03/21 07:08:25;;;;;;;8.35;3.28;;;5.90;99.90;;;;;;5105607;28;20084;-45
2021/03/21 07:11:36;;;;;;;5.20;3.00;;;5.90;99.90;;;;;;5104183;28;20085;-44
2021/03/21 07:14:24;;;;;;;9.25;3.13;;;5.80;99.90;;;;;;5091966;28;20052;-45
2021/03/21 07:17:18;;;;;;;6.75;2.65;;;5.80;99.90;;;;;;5113662;28;20020;-46
2021/03/21 07:20:12;;;;;;;8.95;2.88;;;5.80;99.90;;;;;;5123524;28;20496;-46
2021/03/21 07:23:08;;;;;;;11.15;3.03;;;5.90;99.90;;;;;;5125104;28;20088;-45
2021/03/21 07:25:58;;;;;;;10.23;2.25;;;5.90;99.90;;;;;;5124513;27;20034;-44
2021/03/21 07:28:42;;;;;;;13.32;2.63;;;5.90;99.90;;;;;;5106809;28;20032;-44
2021/03/21 07:31:38;;;;;;;8.82;2.67;;;5.90;99.90;;;;;;5103924;28;20036;-45
2021/03/21 07:34:28;;;;;;;7.22;2.30;;;5.90;99.90;;;;;;5083568;28;20029;-45
2021/03/21 07:37:19;;;;;;;13.07;3.08;;;5.80;99.90;;;;;;5085777;28;20024;-45
2021/03/21 07:40:06;;;;;;;11.57;2.63;;;5.80;99.90;;;;;;5104084;28;20032;-46
2021/03/21 07:43:05;;;;;;;22.23;4.28;;;5.80;99.90;;;;;;5090468;28;20028;-46
2021/03/21 07:45:42;;;;;;;17.98;3.85;;;5.70;99.90;;;;;;5089639;28;20120;-44
2021/03/21 07:48:43;;;;;;;23.05;4.22;;;5.60;99.90;;;;;;5090637;28;20170;-44
2021/03/21 07:51:36;;;;;;;32.92;5.60;;;5.50;99.90;;;;;;5090243;28;20405;-44
2021/03/21 07:54:34;;;;;;;34.35;4.32;;;5.40;99.90;;;;;;5089876;28;20031;-45
2021/03/21 07:57:14;;;;;;;23.05;4.63;;;5.40;99.90;;;;;;5087857;28;20020;-46
2021/03/21 07:59:41;;;;;;;26.48;5.68;;;5.40;99.90;;;;;;5087257;28;20024;-45
2021/03/21 08:02:12;;;;;;;37.05;5.15;;;5.40;99.90;;;;;;5088644;28;20020;-46
2021/03/21 08:04:49;;;;;;;32.72;5.10;;;5.50;99.90;;;;;;5090220;28;20024;-46
2021/03/21 08:07:14;;;;;;;32.65;5.65;;;5.50;99.90;;;;;;5092034;28;20021;-45
2021/03/21 08:09:40;;;;;;;33.55;5.82;;;5.50;99.90;;;;;;5091899;28;20028;-44
2021/03/21 08:12:18;;;;;;;38.55;6.40;;;5.50;99.90;;;;;;5091464;28;20054;-46
2021/03/21 08:14:50;;;;;;;22.02;5.85;;;5.50;99.90;;;;;;5091732;28;20061;-44
2021/03/21 08:17:30;;;;;;;45.47;7.72;;;5.60;99.90;;;;;;5091175;28;20024;-45
2021/03/21 08:19:59;;;;;;;36.50;7.00;;;5.60;99.90;;;;;;5089327;28;20028;-45
2021/03/21 08:22:27;;;;;;;33.65;6.88;;;5.70;99.90;;;;;;5091605;28;20135;-45
2021/03/21 08:24:57;;;;;;;39.58;6.97;;;5.70;99.90;;;;;;5089841;28;20115;-46
2021/03/21 08:27:30;;;;;;;39.10;6.05;;;5.80;99.90;;;;;;5082581;28;20032;-48
2021/03/21 08:30:07;;;;;;;35.15;6.18;;;5.80;99.90;;;;;;5071245;28;20043;-45
2021/03/21 08:32:34;;;;;;;36.03;7.10;;;6.00;99.90;;;;;;5088178;28;20486;-45
2021/03/21 08:35:22;;;;;;;37.17;6.50;;;6.10;99.90;;;;;;5089559;28;20112;-46
2021/03/21 08:37:56;;;;;;;29.17;6.00;;;6.30;99.90;;;;;;5089476;28;20024;-46
2021/03/21 08:40:22;;;;;;;36.72;7.20;;;6.40;99.90;;;;;;5089785;28;20142;-44
2021/03/21 08:42:51;;;;;;;43.28;7.00;;;6.50;99.90;;;;;;5088708;28;20397;-49
2021/03/21 08:45:33;;;;;;;39.40;6.80;;;6.50;99.90;;;;;;5087691;28;20111;-45
2021/03/21 08:48:10;;;;;;;36.95;8.13;;;6.60;99.90;;;;;;5087469;28;20024;-45
2021/03/21 08:50:40;;;;;;;33.60;7.32;;;6.60;99.90;;;;;;5090456;28;20209;-44
2021/03/21 08:53:21;;;;;;;34.72;6.28;;;6.70;99.90;;;;;;5088141;28;20032;-45
2021/03/21 08:55:46;;;;;;;38.22;7.05;;;6.70;99.90;;;;;;5089977;28;20020;-47
2021/03/21 08:58:25;;;;;;;36.35;6.15;;;6.70;99.90;;;;;;5075563;28;20028;-43
2021/03/21 09:00:54;;;;;;;38.92;7.47;;;6.70;99.90;;;;;;5080392;28;20030;-44
2021/03/21 09:03:32;;;;;;;34.85;7.03;;;6.70;99.90;;;;;;5090571;28;20024;-44
2021/03/21 09:05:59;;;;;;;44.22;6.38;;;6.70;99.90;;;;;;5089502;28;20554;-44
2021/03/21 09:08:31;;;;;;;34.85;7.43;;;6.70;99.90;;;;;;5090447;28;20338;-45
2021/03/21 09:11:03;;;;;;;31.52;6.45;;;6.70;99.90;;;;;;5088269;28;20772;-44
2021/03/21 09:13:31;;;;;;;41.15;6.70;;;6.70;99.90;;;;;;5090081;28;20028;-44
2021/03/21 09:15:57;;;;;;;40.60;8.38;;;6.60;99.90;;;;;;5089379;28;20623;-43
2021/03/21 09:18:27;;;;;;;29.48;6.35;;;6.60;99.90;;;;;;5090450;28;20122;-44
2021/03/21 09:21:05;;;;;;;26.88;6.90;;;6.60;99.90;;;;;;5089472;28;20024;-44
2021/03/21 09:23:44;;;;;;;36.33;6.60;;;6.70;99.90;;;;;;5089990;28;20024;-44
2021/03/21 09:26:36;;;;;;;40.63;8.50;;;6.70;99.90;;;;;;5088809;28;20469;-44
2021/03/21 09:29:24;;;;;;;31.38;6.65;;;6.70;99.90;;;;;;5068426;28;20041;-44
2021/03/21 09:31:53;;;;;;;31.65;6.28;;;6.60;99.90;;;;;;5069067;28;20610;-45
2021/03/21 09:34:48;;;;;;;33.88;7.57;;;6.60;99.90;;;;;;5066823;28;20434;-44
2021/03/21 09:37:19;;;;;;;42.70;7.57;;;6.60;99.90;;;;;;5065352;28;20266;-43
2021/03/21 09:40:23;;;;;;;41.20;7.00;;;6.60;99.90;;;;;;5067821;28;20028;-45
2021/03/21 09:42:50;;;;;;;45.17;9.02;;;6.60;99.90;;;;;;5055919;28;20040;-43
2021/03/21 09:45:16;;;;;;;33.75;6.90;;;6.60;99.90;;;;;;5066821;28;20561;-44
2021/03/21 09:47:48;;;;;;;50.22;8.85;;;6.60;99.90;;;;;;5083955;28;20123;-45
2021/03/21 09:50:23;;;;;;;33.08;7.47;;;6.70;99.90;;;;;;5086838;28;20054;-44
2021/03/21 09:53:14;;;;;;;36.53;7.75;;;6.70;99.90;;;;;;5087619;28;20073;-44
2021/03/21 09:55:47;;;;;;;33.17;7.55;;;6.70;99.90;;;;;;5087362;28;20036;-44
2021/03/21 09:58:39;;;;;;;48.85;8.43;;;6.60;99.90;;;;;;5087959;28;20031;-43
2021/03/21 10:01:38;;;;;;;38.45;7.70;;;6.60;99.90;;;;;;5080538;28;20012;-44
2021/03/21 10:04:26;;;;;;;38.90;7.43;;;6.70;99.90;;;;;;5087142;28;20012;-45
2021/03/21 10:06:57;;;;;;;49.90;7.93;;;6.70;99.90;;;;;;5086606;28;20505;-44
2021/03/21 10:09:26;;;;;;;45.40;8.88;;;6.80;99.90;;;;;;5087477;28;20031;-43
2021/03/21 10:11:59;;;;;;;39.85;8.32;;;6.80;99.90;;;;;;5087449;28;20032;-45
2021/03/21 10:14:24;;;;;;;47.40;8.77;;;6.70;99.90;;;;;;5087302;28;20070;-47
2021/03/21 10:16:54;;;;;;;40.25;8.52;;;6.80;99.90;;;;;;5086784;28;20258;-45
2021/03/21 10:19:38;;;;;;;40.17;7.35;;;6.80;99.90;;;;;;5087560;28;20466;-44
2021/03/21 10:22:25;;;;;;;42.05;7.90;;;6.90;99.90;;;;;;5087480;28;20028;-45
2021/03/21 10:24:56;;;;;;;40.88;8.38;;;6.90;99.90;;;;;;5086944;28;20031;-45
2021/03/21 10:27:36;;;;;;;47.17;8.15;;;7.00;99.90;;;;;;5086845;28;20101;-45
2021/03/21 10:30:07;;;;;;;44.65;7.75;;;7.10;99.90;;;;;;5086609;28;20039;-44
2021/03/21 10:32:37;;;;;;;43.70;8.52;;;7.10;99.90;;;;;;5086921;28;20551;-46
2021/03/21 10:35:11;;;;;;;47.58;9.25;;;7.20;99.90;;;;;;5086164;28;20436;-45
2021/03/21 10:37:43;;;;;;;44.70;9.68;;;7.20;99.90;;;;;;5087501;28;20032;-45
2021/03/21 10:40:23;;;;;;;40.53;8.95;;;7.20;99.90;;;;;;5086965;28;20444;-47
2021/03/21 10:42:51;;;;;;;50.85;10.25;;;7.30;99.90;;;;;;5087385;28;20370;-45
2021/03/21 10:45:35;;;;;;;51.88;8.82;;;7.40;99.90;;;;;;5088310;28;20036;-46
2021/03/21 10:48:16;;;;;;;35.05;7.72;;;7.40;99.90;;;;;;5088429;28;20028;-44
2021/03/21 10:51:00;;;;;;;43.80;8.73;;;7.60;99.90;;;;;;5088598;28;20024;-48
2021/03/21 10:53:49;;;;;;;44.67;8.55;;;7.90;99.90;;;;;;5087498;28;20035;-45
2021/03/21 10:56:19;;;;;;;46.55;8.57;;;8.20;99.90;;;;;;5076147;28;20067;-47
2021/03/21 10:58:45;;;;;;;46.38;9.73;;;8.60;99.90;;;;;;5066825;28;20059;-45
2021/03/21 11:01:16;;;;;;;53.95;8.90;;;8.70;99.90;;;;;;5074878;28;20048;-45
2021/03/21 11:03:54;;;;;;;37.50;7.57;;;8.90;99.90;;;;;;5083373;28;20047;-46
2021/03/21 11:06:21;;;;;;;28.92;7.25;;;9.20;99.90;;;;;;5086587;28;20036;-46
2021/03/21 11:08:49;;;;;;;37.88;8.73;;;9.30;99.90;;;;;;5087175;28;20115;-45
2021/03/21 11:11:20;;;;;;;45.28;8.70;;;9.20;99.90;;;;;;5086504;28;20023;-45
2021/03/21 11:13:47;;;;;;;49.72;8.05;;;9.20;99.90;;;;;;5086548;28;20016;-45
2021/03/21 11:16:15;;;;;;;45.45;8.13;;;9.20;99.90;;;;;;5085877;28;20440;-44
2021/03/21 11:18:48;;;;;;;38.20;8.48;;;9.20;99.90;;;;;;5090638;28;20043;-45
2021/03/21 11:21:20;;;;;;;43.33;9.40;;;9.30;99.90;;;;;;5088351;28;20110;-45
2021/03/21 11:24:15;;;;;;;38.70;7.60;;;9.70;99.90;;;;;;5090925;28;20107;-47
2021/03/21 11:26:40;;;;;;;35.72;7.38;;;10.00;99.90;;;;;;5088424;28;20016;-45
2021/03/21 11:29:06;;;;;;;26.90;7.25;;;10.30;99.90;;;;;;5087859;28;20377;-46
2021/03/21 11:31:39;;;;;;;44.53;10.68;;;10.30;99.90;;;;;;5089998;28;20012;-45
2021/03/21 11:34:24;;;;;;;28.73;6.57;;;10.40;99.90;;;;;;5089812;28;20024;-45
2021/03/21 11:37:10;;;;;;;39.20;7.55;;;10.40;99.90;;;;;;5092872;28;20058;-45
2021/03/21 11:39:44;;;;;;;34.08;7.20;;;10.20;99.90;;;;;;5083223;28;20024;-46
2021/03/21 11:42:33;;;;;;;33.28;7.60;;;10.10;99.90;;;;;;5088281;28;20024;-44
2021/03/21 11:45:20;;;;;;;41.00;10.05;;;10.00;99.90;;;;;;5087746;28;20020;-46
2021/03/21 11:47:57;;;;;;;42.38;8.13;;;10.00;99.90;;;;;;5090185;28;20034;-46
2021/03/21 11:50:30;;;;;;;36.63;8.05;;;9.80;99.90;;;;;;5088888;28;20036;-46
2021/03/21 11:52:58;;;;;;;27.15;6.65;;;9.60;99.90;;;;;;5089539;28;20031;-49
2021/03/21 11:55:29;;;;;;;39.70;8.88;;;9.50;99.90;;;;;;5087896;28;20306;-45
2021/03/21 11:58:32;;;;;;;46.65;8.43;;;9.30;99.90;;;;;;5088418;28;20528;-49
2021/03/21 12:01:02;;;;;;;36.50;9.02;;;9.30;99.90;;;;;;5086215;28;20020;-45
2021/03/21 12:03:41;;;;;;;36.97;6.93;;;9.10;99.90;;;;;;5087634;28;20029;-46
2021/03/21 12:06:21;;;;;;;36.60;7.38;;;9.10;99.90;;;;;;5088500;28;20444;-45
2021/03/21 12:08:46;;;;;;;40.27;7.67;;;9.10;99.90;;;;;;5089543;28;20105;-45
2021/03/21 12:11:26;;;;;;;47.97;8.32;;;9.10;99.90;;;;;;5089726;28;20270;-47
2021/03/21 12:14:15;;;;;;;40.03;7.88;;;9.40;99.90;;;;;;5089063;28;20073;-46
2021/03/21 12:16:44;;;;;;;43.95;8.85;;;9.60;99.90;;;;;;5089151;28;20024;-47
2021/03/21 12:19:34;;;;;;;33.15;7.95;;;9.80;99.90;;;;;;5088929;28;20214;-48
2021/03/21 12:22:18;;;;;;;28.17;7.15;;;10.00;99.90;;;;;;5088943;28;20036;-48
2021/03/21 12:24:55;;;;;;;53.30;8.80;;;9.90;99.90;;;;;;5087387;28;20055;-46
2021/03/21 12:27:31;;;;;;;41.65;7.88;;;9.80;99.90;;;;;;5089825;28;20042;-50
2021/03/21 12:30:06;;;;;;;36.33;8.68;;;9.80;99.90;;;;;;5088507;28;20035;-48
2021/03/21 12:32:36;;;;;;;44.58;10.05;;;9.90;99.90;;;;;;5088324;28;20500;-49
2021/03/21 12:35:04;;;;;;;36.95;8.23;;;10.00;99.90;;;;;;5088481;28;20532;-47
2021/03/21 12:37:46;;;;;;;28.15;6.70;;;10.00;99.90;;;;;;5089337;28;20036;-48
2021/03/21 12:40:16;;;;;;;39.83;8.50;;;10.20;99.90;;;;;;5087733;28;20063;-46
2021/03/21 12:42:47;;;;;;;38.05;8.07;;;10.30;99.90;;;;;;5089298;28;20027;-47
2021/03/21 12:45:16;;;;;;;36.38;7.32;;;10.20;99.90;;;;;;5088737;28;20032;-46
2021/03/21 12:47:56;;;;;;;33.05;7.43;;;10.20;99.90;;;;;;5089332;28;20051;-46
2021/03/21 12:50:39;;;;;;;38.15;7.82;;;10.20;99.90;;;;;;5089237;28;20495;-46
2021/03/21 12:53:18;;;;;;;41.38;6.95;;;10.10;99.90;;;;;;5087616;28;20023;-46
2021/03/21 12:55:44;;;;;;;33.63;7.03;;;10.20;99.90;;;;;;5088634;28;20528;-46
2021/03/21 12:58:09;;;;;;;33.33;6.97;;;10.10;99.90;;;;;;5088412;28;20028;-46
2021/03/21 13:00:35;;;;;;;45.35;7.57;;;10.10;99.90;;;;;;5089114;28;20055;-45
2021/03/21 13:03:04;;;;;;;30.17;5.65;;;10.10;99.90;;;;;;5088650;28;20078;-45
2021/03/21 13:05:39;;;;;;;35.72;6.50;;;10.00;99.90;;;;;;5078437;28;20025;-44
2021/03/21 13:08:06;;;;;;;28.27;7.45;;;10.20;99.90;;;;;;5087201;28;20175;-46
2021/03/21 13:10:33;;;;;;;28.30;5.93;;;10.40;99.50;;;;;;5088602;28;20054;-45
2021/03/21 13:13:00;;;;;;;23.08;6.07;;;10.70;99.90;;;;;;5088378;28;20024;-45
2021/03/21 13:15:26;;;;;;;29.20;6.18;;;11.00;98.70;;;;;;5088280;28;20020;-48
2021/03/21 13:17:52;;;;;;;35.55;7.78;;;11.10;98.20;;;;;;5088342;28;20028;-45
2021/03/21 13:20:20;;;;;;;33.22;8.25;;;11.10;98.10;;;;;;5088664;28;20052;-46
2021/03/21 13:22:45;;;;;;;36.13;6.82;;;10.90;96.40;;;;;;5087059;28;20032;-47
2021/03/21 13:25:23;;;;;;;36.60;8.55;;;11.30;98.40;;;;;;5087356;28;20032;-47
2021/03/21 13:27:53;;;;;;;37.55;7.90;;;11.20;96.30;;;;;;5086655;28;20422;-46
2021/03/21 13:30:21;;;;;;;32.65;6.70;;;11.00;95.60;;;;;;5087742;28;20266;-46
2021/03/21 13:32:47;;;;;;;40.47;6.82;;;11.10;96.10;;;;;;5088174;28;20032;-46
2021/03/21 13:35:12;;;;;;;29.88;6.28;;;10.80;94.80;;;;;;5086516;28;20354;-47
2021/03/21 13:37:38;;;;;;;31.95;7.18;;;10.80;96.20;;;;;;5088492;28;20032;-45
2021/03/21 13:40:05;;;;;;;41.35;6.82;;;10.90;96.50;;;;;;5087234;28;20123;-45